Latest Weather Observations for South Channel Island

IDV60901

Issued at 4:41 am EST Friday 29 May 2020 (issued every 10 minutes, with the page automatically refreshed every 10 minutes)

About weather observations | Map of Melbourne area stations | Latest observations for Melbourne area | Other Formats
Station Details ID: 086344 Name: SOUTH CHANNEL ISLAND Lat: -38.31 Lon: 144.80 Height: 9.0 m
Data from the previous 72 hours. | See also: Recent months at South Channel Island
Date/Time
EST
Temp
°C
App
Temp
°C
Dew
Point
°C
Rel
Hum
%
Delta-T
°C
Wind Press
QNH
hPa
Press
MSL
hPa
Rain since
9am
mm
Dir  Spd
km/h
Gust
km/h
Spd
kts
Gust
kts
29/04:30am - - - - - N 17 20 9 11 - - -
29/04:00am - - - - - N 17 19 9 10 - - -
29/03:30am - - - - - N 17 20 9 11 - - -
29/03:00am - - - - - N 19 22 10 12 - - -
29/02:30am - - - - - NNW 15 17 8 9 - - -
29/02:00am - - - - - NW 17 20 9 11 - - -
29/01:30am - - - - - NW 19 22 10 12 - - -
29/01:00am - - - - - NW 17 20 9 11 - - -
29/12:30am - - - - - NW 17 19 9 10 - - -
29/12:00am - - - - - NNW 17 19 9 10 - - -
 
Date/Time
EST
Temp
°C
App
Temp
°C
Dew
Point
°C
Rel
Hum
%
Delta-T
°C
Wind Press
QNH
hPa
Press
MSL
hPa
Rain since
9am
mm
Dir  Spd
km/h
Gust
km/h
Spd
kts
Gust
kts
28/11:30pm - - - - - NNW 17 19 9 10 - - -
28/11:00pm - - - - - NNW 20 22 11 12 - - -
28/10:30pm - - - - - NNW 19 20 10 11 - - -
28/10:00pm - - - - - N 15 19 8 10 - - -
28/09:30pm - - - - - NNW 15 15 8 8 - - -
28/09:00pm - - - - - NW 13 15 7 8 - - -
28/08:30pm - - - - - NNW 15 17 8 9 - - -
28/08:00pm - - - - - NW 15 17 8 9 - - -
28/07:30pm - - - - - NW 17 19 9 10 - - -
28/07:00pm - - - - - WNW 17 19 9 10 - - -
28/06:30pm - - - - - WNW 13 17 7 9 - - -
28/06:00pm - - - - - WNW 19 20 10 11 - - -
28/05:30pm - - - - - W 22 26 12 14 - - -
28/05:00pm - - - - - W 26 28 14 15 - - -
28/04:30pm - - - - - WSW 24 26 13 14 - - -
28/04:00pm - - - - - WSW 20 26 11 14 - - -
28/03:30pm - - - - - WSW 13 15 7 8 - - -
28/03:00pm - - - - - WSW 20 24 11 13 - - -
28/02:30pm - - - - - W 20 26 11 14 - - -
28/02:00pm - - - - - W 15 19 8 10 - - -
28/01:30pm - - - - - W 17 22 9 12 - - -
28/01:00pm - - - - - WNW 22 28 12 15 - - -
28/12:30pm - - - - - WNW 19 24 10 13 - - -
28/12:00pm - - - - - WNW 20 26 11 14 - - -
28/11:30am - - - - - NW 22 28 12 15 - - -
28/11:00am - - - - - NW 22 26 12 14 - - -
28/10:30am - - - - - NW 24 28 13 15 - - -
28/10:00am - - - - - NW 20 24 11 13 - - -
28/09:30am - - - - - NW 20 24 11 13 - - -
28/09:00am - - - - - NNW 20 26 11 14 - - -
28/08:30am - - - - - NNW 20 24 11 13 - - -
28/08:00am - - - - - NNW 19 22 10 12 - - -
28/07:30am - - - - - NW 17 19 9 10 - - -
28/07:00am - - - - - NW 19 24 10 13 - - -
28/06:30am - - - - - WNW 26 30 14 16 - - -
28/06:00am - - - - - W 24 30 13 16 - - -
28/05:30am - - - - - WNW 15 20 8 11 - - -
28/05:00am - - - - - WNW 19 24 10 13 - - -
28/04:30am - - - - - NNW 13 15 7 8 - - -
28/04:00am - - - - - NNW 19 20 10 11 - - -
28/03:30am - - - - - NNW 26 30 14 16 - - -
28/03:00am - - - - - NNW 24 30 13 16 - - -
28/02:30am - - - - - NNW 28 32 15 17 - - -
28/02:00am - - - - - NNW 30 33 16 18 - - -
28/01:30am - - - - - N 24 30 13 16 - - -
28/01:00am - - - - - N 30 35 16 19 - - -
28/12:30am - - - - - N 32 35 17 19 - - -
28/12:00am - - - - - N 30 32 16 17 - - -
 
Date/Time
EST
Temp
°C
App
Temp
°C
Dew
Point
°C
Rel
Hum
%
Delta-T
°C
Wind Press
QNH
hPa
Press
MSL
hPa
Rain since
9am
mm
Dir  Spd
km/h
Gust
km/h
Spd
kts
Gust
kts
27/11:30pm - - - - - N 28 30 15 16 - - -
27/11:00pm - - - - - N 28 30 15 16 - - -
27/10:30pm - - - - - N 26 28 14 15 - - -
27/10:00pm - - - - - N 24 28 13 15 - - -
27/09:30pm - - - - - N 26 30 14 16 - - -
27/09:00pm - - - - - N 28 30 15 16 - - -
27/08:30pm - - - - - N 26 30 14 16 - - -
27/08:00pm - - - - - N 32 35 17 19 - - -
27/07:30pm - - - - - N 28 32 15 17 - - -
27/07:00pm - - - - - N 28 33 15 18 - - -
27/06:30pm - - - - - N 28 30 15 16 - - -
27/06:00pm - - - - - N 24 26 13 14 - - -
27/05:30pm - - - - - N 17 19 9 10 - - -
27/05:00pm - - - - - N 22 26 12 14 - - -
27/04:30pm - - - - - N 26 28 14 15 - - -
27/04:00pm - - - - - N 28 32 15 17 - - -
27/03:30pm - - - - - N 26 30 14 16 - - -
27/03:00pm - - - - - N 30 33 16 18 - - -
27/02:30pm - - - - - N 28 32 15 17 - - -
27/02:00pm - - - - - N 32 37 17 20 - - -
27/01:30pm - - - - - N 35 43 19 23 - - -
27/01:00pm - - - - - N 32 35 17 19 - - -
27/12:30pm - - - - - N 35 43 19 23 - - -
27/12:00pm - - - - - N 33 39 18 21 - - -
27/11:30am - - - - - N 35 43 19 23 - - -
27/11:00am - - - - - N 32 35 17 19 - - -
27/10:30am - - - - - N 37 41 20 22 - - -
27/10:00am - - - - - N 35 41 19 22 - - -
27/09:30am - - - - - N 37 43 20 23 - - -
27/09:00am - - - - - N 33 39 18 21 - - -
27/08:30am - - - - - NNE 32 35 17 19 - - -
27/08:00am - - - - - N 32 35 17 19 - - -
27/07:30am - - - - - NNE 32 33 17 18 - - -
27/07:00am - - - - - NNE 28 32 15 17 - - -
27/06:30am - - - - - NNE 24 28 13 15 - - -
27/06:00am - - - - - NNE 28 32 15 17 - - -
27/05:30am - - - - - NNE 26 28 14 15 - - -
27/05:00am - - - - - NNE 22 26 12 14 - - -
27/04:30am - - - - - NE 19 22 10 12 - - -
27/04:00am - - - - - NE 15 17 8 9 - - -
27/03:30am - - - - - NE 13 13 7 7 - - -
27/03:00am - - - - - NE 13 13 7 7 - - -
27/02:30am - - - - - NE 13 15 7 8 - - -
27/02:00am - - - - - NE 15 17 8 9 - - -
27/01:30am - - - - - NNE 13 15 7 8 - - -
27/01:00am - - - - - NE 19 22 10 12 - - -
27/12:30am - - - - - NE 24 26 13 14 - - -
27/12:00am - - - - - NE 22 26 12 14 - - -
 
Date/Time
EST
Temp
°C
App
Temp
°C
Dew
Point
°C
Rel
Hum
%
Delta-T
°C
Wind Press
QNH
hPa
Press
MSL
hPa
Rain since
9am
mm
Dir  Spd
km/h
Gust
km/h
Spd
kts
Gust
kts
26/11:30pm - - - - - NE 24 26 13 14 - - -
26/11:00pm - - - - - ENE 24 28 13 15 - - -
26/10:30pm - - - - - ENE 28 30 15 16 - - -
26/10:00pm - - - - - ENE 30 33 16 18 - - -
26/09:30pm - - - - - ENE 28 35 15 19 - - -
26/09:00pm - - - - - ENE 26 32 14 17 - - -
26/08:30pm - - - - - ENE 28 32 15 17 - - -
26/08:00pm - - - - - ENE 30 33 16 18 - - -
26/07:30pm - - - - - ENE 30 33 16 18 - - -
26/07:00pm - - - - - ENE 30 33 16 18 - - -
26/06:30pm - - - - - ENE 26 30 14 16 - - -
26/06:00pm - - - - - ENE 24 26 13 14 - - -
26/05:30pm - - - - - E 20 24 11 13 - - -
26/05:00pm - - - - - NE 15 17 8 9 - - -
26/04:30pm - - - - - NE 11 13 6 7 - - -
26/04:00pm - - - - - NE 9 11 5 6 - - -
26/03:30pm - - - - - NE 11 11 6 6 - - -
26/03:00pm - - - - - CALM 0 4 0 2 - - -
26/02:30pm - - - - - N 4 7 2 4 - - -
26/02:00pm - - - - - NNW 13 15 7 8 - - -
26/01:30pm - - - - - N 13 15 7 8 - - -
26/01:00pm - - - - - N 13 17 7 9 - - -
26/12:30pm - - - - - NE 17 20 9 11 - - -
26/12:00pm - - - - - NE 15 19 8 10 - - -
26/11:30am - - - - - NNE 17 24 9 13 - - -
26/11:00am - - - - - NNE 19 26 10 14 - - -
26/10:30am - - - - - N 20 28 11 15 - - -
26/10:00am - - - - - N 20 28 11 15 - - -
26/09:30am - - - - - NE 22 28 12 15 - - -
26/09:00am - - - - - NE 17 24 9 13 - - -
26/08:30am - - - - - NNE 15 20 8 11 - - -
26/08:00am - - - - - NNE 17 19 9 10 - - -
26/07:30am - - - - - NNE 17 19 9 10 - - -
26/07:00am - - - - - NE 22 28 12 15 - - -
26/06:30am - - - - - ENE 32 33 17 18 - - -
26/06:00am - - - - - ENE 26 30 14 16 - - -
26/05:30am - - - - - NNE 19 22 10 12 - - -
26/05:00am - - - - - ENE 24 30 13 16 - - -

Latest Capital City Observations: Canberra | Sydney | Melbourne | Brisbane | Adelaide | Perth | Hobart | Darwin

Other formats

Comma delimited format used in spreadsheet applications
http://www.bom.gov.au/fwo/IDV60901/IDV60901.94853.axf

JavaScript Object Notation format (JSON) in row-major order
http://www.bom.gov.au/fwo/IDV60901/IDV60901.94853.json

Data quality

Most of these data are generated automatically and are frequently updated. Quality checks on data are not normally performed. It is possible for incorrect values to appear. Refer to information at About Latest Weather Observations and please check the disclaimer before using these data.